sensor_id;sensor_type;location;lat;lon;timestamp;temperature;humidity
23540;DHT22;11947;50.810;4.394;2023-03-12T00:01:57;5.40;99.90
23540;DHT22;11947;50.810;4.394;2023-03-12T00:04:24;5.60;99.90
23540;DHT22;11947;50.810;4.394;2023-03-12T00:06:49;5.50;99.90
23540;DHT22;11947;50.810;4.394;2023-03-12T00:09:15;5.60;99.90
23540;DHT22;11947;50.810;4.394;2023-03-12T00:11:41;5.70;99.90
23540;DHT22;11947;50.810;4.394;2023-03-12T00:14:06;5.60;99.90
23540;DHT22;11947;50.810;4.394;2023-03-12T00:16:32;5.70;99.90
23540;DHT22;11947;50.810;4.394;2023-03-12T00:18:57;5.50;99.90
23540;DHT22;11947;50.810;4.394;2023-03-12T00:21:23;5.50;99.90
23540;DHT22;11947;50.810;4.394;2023-03-12T00:23:50;5.40;99.90
23540;DHT22;11947;50.810;4.394;2023-03-12T00:26:17;5.20;99.90
23540;DHT22;11947;50.810;4.394;2023-03-12T00:28:43;5.30;99.90
23540;DHT22;11947;50.810;4.394;2023-03-12T00:33:46;5.50;99.90
23540;DHT22;11947;50.810;4.394;2023-03-12T00:36:13;5.50;99.90
23540;DHT22;11947;50.810;4.394;2023-03-12T00:38:39;5.50;99.90
23540;DHT22;11947;50.810;4.394;2023-03-12T00:41:05;5.60;99.90
23540;DHT22;11947;50.810;4.394;2023-03-12T00:43:31;5.50;99.90
23540;DHT22;11947;50.810;4.394;2023-03-12T00:45:56;5.40;99.90
23540;DHT22;11947;50.810;4.394;2023-03-12T00:48:22;5.60;99.90
23540;DHT22;11947;50.810;4.394;2023-03-12T00:50:47;5.50;99.90
23540;DHT22;11947;50.810;4.394;2023-03-12T00:53:13;5.40;99.90
23540;DHT22;11947;50.810;4.394;2023-03-12T00:55:38;5.50;99.90
23540;DHT22;11947;50.810;4.394;2023-03-12T00:58:04;5.70;99.90
23540;DHT22;11947;50.810;4.394;2023-03-12T01:00:30;5.70;99.90
23540;DHT22;11947;50.810;4.394;2023-03-12T01:02:56;5.30;99.90
23540;DHT22;11947;50.810;4.394;2023-03-12T01:05:21;5.10;99.90
23540;DHT22;11947;50.810;4.394;2023-03-12T01:07:47;5.00;99.90
23540;DHT22;11947;50.810;4.394;2023-03-12T01:10:16;4.80;99.90
23540;DHT22;11947;50.810;4.394;2023-03-12T01:12:42;4.80;99.90
23540;DHT22;11947;50.810;4.394;2023-03-12T01:15:10;4.60;99.90
23540;DHT22;11947;50.810;4.394;2023-03-12T01:17:36;4.50;99.90
23540;DHT22;11947;50.810;4.394;2023-03-12T01:20:02;4.50;99.90
23540;DHT22;11947;50.810;4.394;2023-03-12T01:22:28;4.40;99.90
23540;DHT22;11947;50.810;4.394;2023-03-12T01:24:54;4.40;99.90
23540;DHT22;11947;50.810;4.394;2023-03-12T01:27:19;4.30;99.90
23540;DHT22;11947;50.810;4.394;2023-03-12T01:29:45;4.40;99.90
23540;DHT22;11947;50.810;4.394;2023-03-12T01:32:10;4.30;99.90
23540;DHT22;11947;50.810;4.394;2023-03-12T01:34:36;4.10;99.90
23540;DHT22;11947;50.810;4.394;2023-03-12T01:37:01;4.20;99.90
23540;DHT22;11947;50.810;4.394;2023-03-12T01:39:27;4.20;99.90
23540;DHT22;11947;50.810;4.394;2023-03-12T01:41:53;4.20;99.90
23540;DHT22;11947;50.810;4.394;2023-03-12T01:44:18;4.20;99.90
23540;DHT22;11947;50.810;4.394;2023-03-12T01:46:44;4.10;99.90
23540;DHT22;11947;50.810;4.394;2023-03-12T01:49:28;4.10;99.90
23540;DHT22;11947;50.810;4.394;2023-03-12T01:51:59;4.10;99.90
23540;DHT22;11947;50.810;4.394;2023-03-12T01:54:34;4.00;99.90
23540;DHT22;11947;50.810;4.394;2023-03-12T01:57:04;4.00;99.90
23540;DHT22;11947;50.810;4.394;2023-03-12T01:59:38;3.90;99.90
23540;DHT22;11947;50.810;4.394;2023-03-12T02:02:05;3.90;99.90
23540;DHT22;11947;50.810;4.394;2023-03-12T02:04:32;3.90;99.90
23540;DHT22;11947;50.810;4.394;2023-03-12T02:07:07;4.10;99.90
23540;DHT22;11947;50.810;4.394;2023-03-12T02:09:37;4.00;99.90
23540;DHT22;11947;50.810;4.394;2023-03-12T02:12:04;4.00;99.90
23540;DHT22;11947;50.810;4.394;2023-03-12T02:14:31;4.10;99.90
23540;DHT22;11947;50.810;4.394;2023-03-12T02:16:57;4.30;99.90
23540;DHT22;11947;50.810;4.394;2023-03-12T02:22:07;4.10;99.90
23540;DHT22;11947;50.810;4.394;2023-03-12T02:27:06;4.30;99.90
23540;DHT22;11947;50.810;4.394;2023-03-12T02:29:33;4.20;99.90
23540;DHT22;11947;50.810;4.394;2023-03-12T02:32:01;4.10;99.90
23540;DHT22;11947;50.810;4.394;2023-03-12T02:34:28;4.00;99.90
23540;DHT22;11947;50.810;4.394;2023-03-12T02:36:54;4.00;99.90
23540;DHT22;11947;50.810;4.394;2023-03-12T02:39:20;4.00;99.90
23540;DHT22;11947;50.810;4.394;2023-03-12T02:41:53;4.00;99.90
23540;DHT22;11947;50.810;4.394;2023-03-12T02:44:29;4.00;99.90
23540;DHT22;11947;50.810;4.394;2023-03-12T02:46:57;4.10;99.90
23540;DHT22;11947;50.810;4.394;2023-03-12T02:49:26;4.00;99.90
23540;DHT22;11947;50.810;4.394;2023-03-12T02:51:53;4.00;99.90
23540;DHT22;11947;50.810;4.394;2023-03-12T02:54:20;4.30;99.90
23540;DHT22;11947;50.810;4.394;2023-03-12T02:56:47;4.40;99.90
23540;DHT22;11947;50.810;4.394;2023-03-12T02:59:13;4.30;99.90
23540;DHT22;11947;50.810;4.394;2023-03-12T03:01:40;4.30;99.90
23540;DHT22;11947;50.810;4.394;2023-03-12T03:04:07;4.20;99.90
23540;DHT22;11947;50.810;4.394;2023-03-12T03:06:34;4.30;99.90
23540;DHT22;11947;50.810;4.394;2023-03-12T03:09:02;4.30;99.90
23540;DHT22;11947;50.810;4.394;2023-03-12T03:11:28;4.40;99.90
23540;DHT22;11947;50.810;4.394;2023-03-12T03:13:54;4.40;99.90
23540;DHT22;11947;50.810;4.394;2023-03-12T03:16:20;4.50;99.90
23540;DHT22;11947;50.810;4.394;2023-03-12T03:18:47;4.40;99.90
23540;DHT22;11947;50.810;4.394;2023-03-12T03:21:13;4.30;99.90
23540;DHT22;11947;50.810;4.394;2023-03-12T03:23:48;4.40;99.90
23540;DHT22;11947;50.810;4.394;2023-03-12T03:26:17;4.60;99.90
23540;DHT22;11947;50.810;4.394;2023-03-12T03:28:43;4.80;99.90
23540;DHT22;11947;50.810;4.394;2023-03-12T03:31:08;4.80;99.90
23540;DHT22;11947;50.810;4.394;2023-03-12T03:33:36;4.50;99.90
23540;DHT22;11947;50.810;4.394;2023-03-12T03:36:03;4.50;99.90
23540;DHT22;11947;50.810;4.394;2023-03-12T03:38:30;4.50;99.90
23540;DHT22;11947;50.810;4.394;2023-03-12T03:40:57;4.50;99.90
23540;DHT22;11947;50.810;4.394;2023-03-12T03:43:23;4.50;99.90
23540;DHT22;11947;50.810;4.394;2023-03-12T03:45:59;4.60;99.90
23540;DHT22;11947;50.810;4.394;2023-03-12T03:48:25;4.70;99.90
23540;DHT22;11947;50.810;4.394;2023-03-12T03:50:51;4.60;99.90
23540;DHT22;11947;50.810;4.394;2023-03-12T03:53:16;4.80;99.90
23540;DHT22;11947;50.810;4.394;2023-03-12T03:55:44;4.70;99.90
23540;DHT22;11947;50.810;4.394;2023-03-12T03:58:10;4.70;99.90
23540;DHT22;11947;50.810;4.394;2023-03-12T04:00:38;4.70;99.90
23540;DHT22;11947;50.810;4.394;2023-03-12T04:03:03;4.80;99.90
23540;DHT22;11947;50.810;4.394;2023-03-12T04:05:29;4.80;99.90
23540;DHT22;11947;50.810;4.394;2023-03-12T04:07:55;4.90;99.90
23540;DHT22;11947;50.810;4.394;2023-03-12T04:10:23;5.20;99.90
23540;DHT22;11947;50.810;4.394;2023-03-12T04:12:49;5.20;99.90
23540;DHT22;11947;50.810;4.394;2023-03-12T04:15:15;5.40;99.90
23540;DHT22;11947;50.810;4.394;2023-03-12T04:17:41;5.40;99.90
23540;DHT22;11947;50.810;4.394;2023-03-12T04:20:07;5.30;99.90
23540;DHT22;11947;50.810;4.394;2023-03-12T04:22:34;5.40;99.90
23540;DHT22;11947;50.810;4.394;2023-03-12T04:25:00;5.70;99.90
23540;DHT22;11947;50.810;4.394;2023-03-12T04:27:26;5.70;99.90
23540;DHT22;11947;50.810;4.394;2023-03-12T04:29:53;5.70;99.90
23540;DHT22;11947;50.810;4.394;2023-03-12T04:32:19;5.60;99.90
23540;DHT22;11947;50.810;4.394;2023-03-12T04:34:44;5.60;99.90
23540;DHT22;11947;50.810;4.394;2023-03-12T04:37:10;5.60;99.90
23540;DHT22;11947;50.810;4.394;2023-03-12T04:39:39;5.70;99.90
23540;DHT22;11947;50.810;4.394;2023-03-12T04:42:05;5.90;99.90
23540;DHT22;11947;50.810;4.394;2023-03-12T04:44:31;5.80;99.90
23540;DHT22;11947;50.810;4.394;2023-03-12T04:46:57;5.90;99.90
23540;DHT22;11947;50.810;4.394;2023-03-12T04:49:22;6.10;99.90
23540;DHT22;11947;50.810;4.394;2023-03-12T04:51:48;5.80;99.90
23540;DHT22;11947;50.810;4.394;2023-03-12T04:54:13;5.70;99.90
23540;DHT22;11947;50.810;4.394;2023-03-12T04:56:39;5.80;99.90
23540;DHT22;11947;50.810;4.394;2023-03-12T04:59:05;5.80;99.90
23540;DHT22;11947;50.810;4.394;2023-03-12T05:01:33;5.70;99.90
23540;DHT22;11947;50.810;4.394;2023-03-12T05:03:59;5.60;99.90
23540;DHT22;11947;50.810;4.394;2023-03-12T05:06:25;5.80;99.90
23540;DHT22;11947;50.810;4.394;2023-03-12T05:08:51;5.80;99.90
23540;DHT22;11947;50.810;4.394;2023-03-12T05:11:17;5.80;99.90
23540;DHT22;11947;50.810;4.394;2023-03-12T05:13:43;5.70;99.90
23540;DHT22;11947;50.810;4.394;2023-03-12T05:16:10;5.70;99.90
23540;DHT22;11947;50.810;4.394;2023-03-12T05:18:36;5.80;99.90
23540;DHT22;11947;50.810;4.394;2023-03-12T05:21:11;5.90;99.90
23540;DHT22;11947;50.810;4.394;2023-03-12T05:23:37;5.90;99.90
23540;DHT22;11947;50.810;4.394;2023-03-12T05:26:13;5.90;99.90
23540;DHT22;11947;50.810;4.394;2023-03-12T05:28:39;5.90;99.90
23540;DHT22;11947;50.810;4.394;2023-03-12T05:31:08;6.10;99.90
23540;DHT22;11947;50.810;4.394;2023-03-12T05:33:35;6.00;99.90
23540;DHT22;11947;50.810;4.394;2023-03-12T05:36:00;6.00;99.90
23540;DHT22;11947;50.810;4.394;2023-03-12T05:38:26;6.10;99.90
23540;DHT22;11947;50.810;4.394;2023-03-12T05:40:54;6.20;99.90
23540;DHT22;11947;50.810;4.394;2023-03-12T05:43:19;6.40;99.90
23540;DHT22;11947;50.810;4.394;2023-03-12T05:45:45;6.30;99.90
23540;DHT22;11947;50.810;4.394;2023-03-12T05:48:11;6.40;99.90
23540;DHT22;11947;50.810;4.394;2023-03-12T05:50:36;6.30;99.90
23540;DHT22;11947;50.810;4.394;2023-03-12T05:53:02;6.30;99.90
23540;DHT22;11947;50.810;4.394;2023-03-12T05:55:28;6.20;99.90
23540;DHT22;11947;50.810;4.394;2023-03-12T05:57:53;6.30;99.90
23540;DHT22;11947;50.810;4.394;2023-03-12T06:00:19;6.50;99.90
23540;DHT22;11947;50.810;4.394;2023-03-12T06:02:45;6.50;99.90
23540;DHT22;11947;50.810;4.394;2023-03-12T06:05:11;6.50;99.90
23540;DHT22;11947;50.810;4.394;2023-03-12T06:07:37;6.50;99.90
23540;DHT22;11947;50.810;4.394;2023-03-12T06:10:02;6.70;99.90
23540;DHT22;11947;50.810;4.394;2023-03-12T06:12:28;6.70;99.90
23540;DHT22;11947;50.810;4.394;2023-03-12T06:14:54;6.70;99.90
23540;DHT22;11947;50.810;4.394;2023-03-12T06:17:19;6.80;99.90
23540;DHT22;11947;50.810;4.394;2023-03-12T06:19:45;6.80;99.90
23540;DHT22;11947;50.810;4.394;2023-03-12T06:22:11;7.00;99.90
23540;DHT22;11947;50.810;4.394;2023-03-12T06:24:37;7.00;99.90
23540;DHT22;11947;50.810;4.394;2023-03-12T06:27:03;7.10;99.90
23540;DHT22;11947;50.810;4.394;2023-03-12T06:29:29;7.20;99.90
23540;DHT22;11947;50.810;4.394;2023-03-12T06:31:55;7.30;99.90
23540;DHT22;11947;50.810;4.394;2023-03-12T06:34:20;7.30;99.90
23540;DHT22;11947;50.810;4.394;2023-03-12T06:36:46;7.30;99.90
23540;DHT22;11947;50.810;4.394;2023-03-12T06:39:11;7.10;99.90
23540;DHT22;11947;50.810;4.394;2023-03-12T06:41:37;7.20;99.90
23540;DHT22;11947;50.810;4.394;2023-03-12T06:44:03;7.50;99.90
23540;DHT22;11947;50.810;4.394;2023-03-12T06:46:30;7.50;99.90
23540;DHT22;11947;50.810;4.394;2023-03-12T06:48:56;7.70;99.90
23540;DHT22;11947;50.810;4.394;2023-03-12T06:51:22;7.60;99.90
23540;DHT22;11947;50.810;4.394;2023-03-12T06:53:47;7.60;99.90
23540;DHT22;11947;50.810;4.394;2023-03-12T06:56:13;7.80;99.90
23540;DHT22;11947;50.810;4.394;2023-03-12T06:58:39;8.00;99.90
23540;DHT22;11947;50.810;4.394;2023-03-12T07:01:05;7.90;99.90
23540;DHT22;11947;50.810;4.394;2023-03-12T07:03:31;7.90;99.90
23540;DHT22;11947;50.810;4.394;2023-03-12T07:05:57;7.90;99.90
23540;DHT22;11947;50.810;4.394;2023-03-12T07:08:24;7.90;99.90
23540;DHT22;11947;50.810;4.394;2023-03-12T07:10:50;7.90;99.90
23540;DHT22;11947;50.810;4.394;2023-03-12T07:13:15;8.00;99.90
23540;DHT22;11947;50.810;4.394;2023-03-12T07:15:41;7.90;99.90
23540;DHT22;11947;50.810;4.394;2023-03-12T07:18:08;8.00;99.90
23540;DHT22;11947;50.810;4.394;2023-03-12T07:20:39;7.80;99.90
23540;DHT22;11947;50.810;4.394;2023-03-12T07:23:06;8.00;99.90
23540;DHT22;11947;50.810;4.394;2023-03-12T07:25:36;8.20;99.90
23540;DHT22;11947;50.810;4.394;2023-03-12T07:28:03;8.10;99.90
23540;DHT22;11947;50.810;4.394;2023-03-12T07:30:29;8.20;99.90
23540;DHT22;11947;50.810;4.394;2023-03-12T07:33:02;8.30;99.90
23540;DHT22;11947;50.810;4.394;2023-03-12T07:35:27;8.40;99.90
23540;DHT22;11947;50.810;4.394;2023-03-12T07:37:53;8.50;99.90
23540;DHT22;11947;50.810;4.394;2023-03-12T07:40:19;8.50;99.90
23540;DHT22;11947;50.810;4.394;2023-03-12T07:42:44;8.50;99.90
23540;DHT22;11947;50.810;4.394;2023-03-12T07:45:10;8.60;99.90
23540;DHT22;11947;50.810;4.394;2023-03-12T07:47:36;8.60;99.90
23540;DHT22;11947;50.810;4.394;2023-03-12T07:50:01;8.60;99.90
23540;DHT22;11947;50.810;4.394;2023-03-12T07:52:27;8.60;99.90
23540;DHT22;11947;50.810;4.394;2023-03-12T07:54:53;8.70;99.90
23540;DHT22;11947;50.810;4.394;2023-03-12T07:57:21;8.70;99.90
23540;DHT22;11947;50.810;4.394;2023-03-12T07:59:46;8.80;99.90
23540;DHT22;11947;50.810;4.394;2023-03-12T08:02:12;8.80;99.90
23540;DHT22;11947;50.810;4.394;2023-03-12T08:04:38;8.70;99.90
23540;DHT22;11947;50.810;4.394;2023-03-12T08:07:04;8.90;99.90
23540;DHT22;11947;50.810;4.394;2023-03-12T08:09:29;9.10;99.90
23540;DHT22;11947;50.810;4.394;2023-03-12T08:11:56;9.10;99.90
23540;DHT22;11947;50.810;4.394;2023-03-12T08:14:22;9.20;99.90
23540;DHT22;11947;50.810;4.394;2023-03-12T08:16:47;9.20;99.90
23540;DHT22;11947;50.810;4.394;2023-03-12T08:19:13;9.20;99.90
23540;DHT22;11947;50.810;4.394;2023-03-12T08:21:39;9.30;99.90
23540;DHT22;11947;50.810;4.394;2023-03-12T08:24:04;9.30;99.90
23540;DHT22;11947;50.810;4.394;2023-03-12T08:26:30;9.30;99.90
23540;DHT22;11947;50.810;4.394;2023-03-12T08:28:56;9.20;99.90
23540;DHT22;11947;50.810;4.394;2023-03-12T08:31:22;9.30;99.90
23540;DHT22;11947;50.810;4.394;2023-03-12T08:33:47;9.50;99.90
23540;DHT22;11947;50.810;4.394;2023-03-12T08:36:13;9.40;99.90
23540;DHT22;11947;50.810;4.394;2023-03-12T08:38:39;9.50;99.90
23540;DHT22;11947;50.810;4.394;2023-03-12T08:41:04;9.40;99.90
23540;DHT22;11947;50.810;4.394;2023-03-12T08:43:30;9.50;99.90
23540;DHT22;11947;50.810;4.394;2023-03-12T08:45:57;9.60;99.90
23540;DHT22;11947;50.810;4.394;2023-03-12T08:48:24;9.70;99.90
23540;DHT22;11947;50.810;4.394;2023-03-12T08:50:49;9.70;99.90
23540;DHT22;11947;50.810;4.394;2023-03-12T08:53:15;9.80;99.90
23540;DHT22;11947;50.810;4.394;2023-03-12T08:55:41;9.90;99.90
23540;DHT22;11947;50.810;4.394;2023-03-12T08:58:07;10.20;99.90
23540;DHT22;11947;50.810;4.394;2023-03-12T09:00:33;10.30;99.90
23540;DHT22;11947;50.810;4.394;2023-03-12T09:02:58;10.30;99.90
23540;DHT22;11947;50.810;4.394;2023-03-12T09:05:24;10.60;99.90
23540;DHT22;11947;50.810;4.394;2023-03-12T09:07:50;10.80;99.90
23540;DHT22;11947;50.810;4.394;2023-03-12T09:10:16;10.80;99.90
23540;DHT22;11947;50.810;4.394;2023-03-12T09:12:42;11.00;99.90
23540;DHT22;11947;50.810;4.394;2023-03-12T09:15:09;11.10;99.90
23540;DHT22;11947;50.810;4.394;2023-03-12T09:17:35;11.10;99.90
23540;DHT22;11947;50.810;4.394;2023-03-12T09:20:00;11.30;99.90
23540;DHT22;11947;50.810;4.394;2023-03-12T09:22:28;11.40;99.90
23540;DHT22;11947;50.810;4.394;2023-03-12T09:24:54;11.30;99.90
23540;DHT22;11947;50.810;4.394;2023-03-12T09:27:20;11.40;99.90
23540;DHT22;11947;50.810;4.394;2023-03-12T09:29:45;11.60;99.90
23540;DHT22;11947;50.810;4.394;2023-03-12T09:32:11;11.90;99.90
23540;DHT22;11947;50.810;4.394;2023-03-12T09:34:39;12.10;99.90
23540;DHT22;11947;50.810;4.394;2023-03-12T09:37:05;12.30;99.90
23540;DHT22;11947;50.810;4.394;2023-03-12T09:39:30;12.70;99.90
23540;DHT22;11947;50.810;4.394;2023-03-12T09:41:56;13.20;99.90
23540;DHT22;11947;50.810;4.394;2023-03-12T09:44:30;13.40;99.90
23540;DHT22;11947;50.810;4.394;2023-03-12T09:47:07;13.60;99.90
23540;DHT22;11947;50.810;4.394;2023-03-12T09:49:39;13.60;99.90
23540;DHT22;11947;50.810;4.394;2023-03-12T09:52:28;13.80;99.90
23540;DHT22;11947;50.810;4.394;2023-03-12T09:55:05;13.80;99.90
23540;DHT22;11947;50.810;4.394;2023-03-12T09:57:31;13.80;99.90
23540;DHT22;11947;50.810;4.394;2023-03-12T09:59:57;14.00;99.90
23540;DHT22;11947;50.810;4.394;2023-03-12T10:02:41;14.10;99.90
23540;DHT22;11947;50.810;4.394;2023-03-12T10:08:36;14.60;99.90
23540;DHT22;11947;50.810;4.394;2023-03-12T10:11:39;14.70;99.90
23540;DHT22;11947;50.810;4.394;2023-03-12T10:14:49;14.40;99.90
23540;DHT22;11947;50.810;4.394;2023-03-12T10:23:33;14.00;99.90
23540;DHT22;11947;50.810;4.394;2023-03-12T10:26:15;14.10;99.90
23540;DHT22;11947;50.810;4.394;2023-03-12T10:28:47;14.20;99.90
23540;DHT22;11947;50.810;4.394;2023-03-12T10:31:22;14.50;99.90
23540;DHT22;11947;50.810;4.394;2023-03-12T10:33:55;15.00;99.90
23540;DHT22;11947;50.810;4.394;2023-03-12T10:36:28;15.30;99.90
23540;DHT22;11947;50.810;4.394;2023-03-12T10:38:58;15.10;99.90
23540;DHT22;11947;50.810;4.394;2023-03-12T10:41:27;14.90;99.90
23540;DHT22;11947;50.810;4.394;2023-03-12T10:43:57;15.10;99.90
23540;DHT22;11947;50.810;4.394;2023-03-12T10:51:54;15.20;99.90
23540;DHT22;11947;50.810;4.394;2023-03-12T10:54:25;15.10;99.90
23540;DHT22;11947;50.810;4.394;2023-03-12T10:56:51;15.30;99.90
23540;DHT22;11947;50.810;4.394;2023-03-12T10:59:21;15.50;99.90
23540;DHT22;11947;50.810;4.394;2023-03-12T11:01:49;15.60;99.90
23540;DHT22;11947;50.810;4.394;2023-03-12T11:04:18;15.90;99.90
23540;DHT22;11947;50.810;4.394;2023-03-12T11:09:31;15.90;99.90
23540;DHT22;11947;50.810;4.394;2023-03-12T11:11:57;15.80;99.90
23540;DHT22;11947;50.810;4.394;2023-03-12T11:14:25;15.70;99.90
23540;DHT22;11947;50.810;4.394;2023-03-12T11:16:52;15.30;99.90
23540;DHT22;11947;50.810;4.394;2023-03-12T11:19:29;15.00;99.90
23540;DHT22;11947;50.810;4.394;2023-03-12T11:21:59;15.00;99.90
23540;DHT22;11947;50.810;4.394;2023-03-12T11:24:25;15.10;99.90
23540;DHT22;11947;50.810;4.394;2023-03-12T11:27:29;14.80;99.90
23540;DHT22;11947;50.810;4.394;2023-03-12T11:29:58;14.60;99.90
23540;DHT22;11947;50.810;4.394;2023-03-12T11:32:37;14.40;99.90
23540;DHT22;11947;50.810;4.394;2023-03-12T11:35:12;14.50;99.90
23540;DHT22;11947;50.810;4.394;2023-03-12T11:40:55;14.80;99.90
23540;DHT22;11947;50.810;4.394;2023-03-12T11:46:21;15.00;99.90
23540;DHT22;11947;50.810;4.394;2023-03-12T11:51:43;15.10;99.90
23540;DHT22;11947;50.810;4.394;2023-03-12T11:56:52;14.80;99.90
23540;DHT22;11947;50.810;4.394;2023-03-12T12:02:50;15.20;99.90
23540;DHT22;11947;50.810;4.394;2023-03-12T12:08:28;15.40;99.90
23540;DHT22;11947;50.810;4.394;2023-03-12T12:11:13;15.30;99.90
23540;DHT22;11947;50.810;4.394;2023-03-12T12:19:19;15.30;99.90
23540;DHT22;11947;50.810;4.394;2023-03-12T12:24:37;15.00;99.90
23540;DHT22;11947;50.810;4.394;2023-03-12T12:27:30;15.20;99.90
23540;DHT22;11947;50.810;4.394;2023-03-12T12:30:21;15.30;99.90
23540;DHT22;11947;50.810;4.394;2023-03-12T12:37:57;14.70;99.90
23540;DHT22;11947;50.810;4.394;2023-03-12T12:40:30;14.80;99.90
23540;DHT22;11947;50.810;4.394;2023-03-12T12:46:11;14.60;99.90
23540;DHT22;11947;50.810;4.394;2023-03-12T12:48:45;14.60;99.90
23540;DHT22;11947;50.810;4.394;2023-03-12T12:51:14;14.70;99.90
23540;DHT22;11947;50.810;4.394;2023-03-12T12:56:56;14.70;99.90
23540;DHT22;11947;50.810;4.394;2023-03-12T13:01:56;14.80;99.90
23540;DHT22;11947;50.810;4.394;2023-03-12T13:04:32;15.00;99.90
23540;DHT22;11947;50.810;4.394;2023-03-12T13:09:51;15.40;99.90
23540;DHT22;11947;50.810;4.394;2023-03-12T13:12:32;15.80;99.90
23540;DHT22;11947;50.810;4.394;2023-03-12T13:15:01;15.90;99.90
23540;DHT22;11947;50.810;4.394;2023-03-12T13:20:19;15.40;99.90
23540;DHT22;11947;50.810;4.394;2023-03-12T13:22:57;15.10;99.90
23540;DHT22;11947;50.810;4.394;2023-03-12T13:25:49;14.90;99.90
23540;DHT22;11947;50.810;4.394;2023-03-12T13:33:58;14.70;99.90
23540;DHT22;11947;50.810;4.394;2023-03-12T13:36:26;15.00;99.90
23540;DHT22;11947;50.810;4.394;2023-03-12T13:41:41;16.00;99.90
23540;DHT22;11947;50.810;4.394;2023-03-12T13:49:54;18.50;99.90
23540;DHT22;11947;50.810;4.394;2023-03-12T13:55:00;19.30;99.90
23540;DHT22;11947;50.810;4.394;2023-03-12T13:57:35;18.80;99.90
23540;DHT22;11947;50.810;4.394;2023-03-12T14:00:06;18.20;99.90
23540;DHT22;11947;50.810;4.394;2023-03-12T14:02:39;17.60;99.90
23540;DHT22;11947;50.810;4.394;2023-03-12T14:05:09;17.00;99.90
23540;DHT22;11947;50.810;4.394;2023-03-12T14:08:01;16.90;99.90
23540;DHT22;11947;50.810;4.394;2023-03-12T14:10:39;16.90;99.90
23540;DHT22;11947;50.810;4.394;2023-03-12T14:13:29;17.50;99.90
23540;DHT22;11947;50.810;4.394;2023-03-12T14:16:06;17.20;99.90
23540;DHT22;11947;50.810;4.394;2023-03-12T14:18:38;17.00;99.90
23540;DHT22;11947;50.810;4.394;2023-03-12T14:21:09;16.80;99.90
23540;DHT22;11947;50.810;4.394;2023-03-12T14:23:43;16.20;99.90
23540;DHT22;11947;50.810;4.394;2023-03-12T14:26:24;15.50;99.90
23540;DHT22;11947;50.810;4.394;2023-03-12T14:29:10;15.40;99.90
23540;DHT22;11947;50.810;4.394;2023-03-12T14:31:39;15.40;99.90
23540;DHT22;11947;50.810;4.394;2023-03-12T14:34:20;15.50;99.90
23540;DHT22;11947;50.810;4.394;2023-03-12T14:36:59;15.90;99.90
23540;DHT22;11947;50.810;4.394;2023-03-12T14:39:43;15.70;99.90
23540;DHT22;11947;50.810;4.394;2023-03-12T14:42:20;15.70;99.90
23540;DHT22;11947;50.810;4.394;2023-03-12T14:45:20;15.70;99.90
23540;DHT22;11947;50.810;4.394;2023-03-12T14:47:55;15.80;99.90
23540;DHT22;11947;50.810;4.394;2023-03-12T14:50:28;16.20;99.90
23540;DHT22;11947;50.810;4.394;2023-03-12T14:53:10;16.20;99.90
23540;DHT22;11947;50.810;4.394;2023-03-12T14:55:36;16.20;99.90
23540;DHT22;11947;50.810;4.394;2023-03-12T14:58:13;16.10;99.90
23540;DHT22;11947;50.810;4.394;2023-03-12T15:00:42;15.90;99.90
23540;DHT22;11947;50.810;4.394;2023-03-12T15:03:13;15.70;99.90
23540;DHT22;11947;50.810;4.394;2023-03-12T15:05:47;15.50;99.90
23540;DHT22;11947;50.810;4.394;2023-03-12T15:08:13;15.50;99.90
23540;DHT22;11947;50.810;4.394;2023-03-12T15:10:47;15.40;99.90
23540;DHT22;11947;50.810;4.394;2023-03-12T15:13:13;15.30;99.90
23540;DHT22;11947;50.810;4.394;2023-03-12T15:15:47;15.10;99.90
23540;DHT22;11947;50.810;4.394;2023-03-12T15:18:20;14.90;99.90
23540;DHT22;11947;50.810;4.394;2023-03-12T15:20:48;14.70;99.90
23540;DHT22;11947;50.810;4.394;2023-03-12T15:23:14;14.60;99.90
23540;DHT22;11947;50.810;4.394;2023-03-12T15:25:41;14.50;99.90
23540;DHT22;11947;50.810;4.394;2023-03-12T15:30:42;14.60;99.90
23540;DHT22;11947;50.810;4.394;2023-03-12T15:35:59;14.40;99.90
23540;DHT22;11947;50.810;4.394;2023-03-12T15:38:26;14.30;99.90
23540;DHT22;11947;50.810;4.394;2023-03-12T15:40:53;14.30;99.90
23540;DHT22;11947;50.810;4.394;2023-03-12T15:43:22;14.20;99.90
23540;DHT22;11947;50.810;4.394;2023-03-12T15:45:59;14.40;99.90
23540;DHT22;11947;50.810;4.394;2023-03-12T15:48:39;14.20;99.90
23540;DHT22;11947;50.810;4.394;2023-03-12T15:51:29;14.10;99.90
23540;DHT22;11947;50.810;4.394;2023-03-12T15:54:02;14.00;99.90
23540;DHT22;11947;50.810;4.394;2023-03-12T15:56:30;14.20;99.90
23540;DHT22;11947;50.810;4.394;2023-03-12T15:59:26;13.90;99.90
23540;DHT22;11947;50.810;4.394;2023-03-12T16:01:55;13.60;99.90
23540;DHT22;11947;50.810;4.394;2023-03-12T16:04:21;13.60;99.90
23540;DHT22;11947;50.810;4.394;2023-03-12T16:06:49;13.70;99.90
23540;DHT22;11947;50.810;4.394;2023-03-12T16:09:24;13.80;99.90
23540;DHT22;11947;50.810;4.394;2023-03-12T16:11:54;13.70;99.90
23540;DHT22;11947;50.810;4.394;2023-03-12T16:14:30;13.90;99.90
23540;DHT22;11947;50.810;4.394;2023-03-12T16:16:57;13.60;99.90
23540;DHT22;11947;50.810;4.394;2023-03-12T16:19:25;13.70;99.90
23540;DHT22;11947;50.810;4.394;2023-03-12T16:21:52;13.60;99.90
23540;DHT22;11947;50.810;4.394;2023-03-12T16:24:18;13.50;99.90
23540;DHT22;11947;50.810;4.394;2023-03-12T16:26:48;13.70;99.90
23540;DHT22;11947;50.810;4.394;2023-03-12T16:29:16;13.60;99.90
23540;DHT22;11947;50.810;4.394;2023-03-12T16:31:43;13.40;99.90
23540;DHT22;11947;50.810;4.394;2023-03-12T16:34:10;13.30;99.90
23540;DHT22;11947;50.810;4.394;2023-03-12T16:36:36;13.20;99.90
23540;DHT22;11947;50.810;4.394;2023-03-12T16:39:01;13.20;99.90
23540;DHT22;11947;50.810;4.394;2023-03-12T16:41:27;13.30;99.90
23540;DHT22;11947;50.810;4.394;2023-03-12T16:43:53;13.30;99.90
23540;DHT22;11947;50.810;4.394;2023-03-12T16:46:20;13.20;99.90
23540;DHT22;11947;50.810;4.394;2023-03-12T16:48:51;13.30;99.90
23540;DHT22;11947;50.810;4.394;2023-03-12T16:51:20;13.20;99.90
23540;DHT22;11947;50.810;4.394;2023-03-12T16:53:46;13.20;99.90
23540;DHT22;11947;50.810;4.394;2023-03-12T16:56:17;13.10;99.90
23540;DHT22;11947;50.810;4.394;2023-03-12T16:58:44;12.90;99.90
23540;DHT22;11947;50.810;4.394;2023-03-12T17:01:12;12.90;99.90
23540;DHT22;11947;50.810;4.394;2023-03-12T17:03:39;12.90;99.90
23540;DHT22;11947;50.810;4.394;2023-03-12T17:06:11;12.90;99.90
23540;DHT22;11947;50.810;4.394;2023-03-12T17:08:37;12.80;99.90
23540;DHT22;11947;50.810;4.394;2023-03-12T17:13:44;12.80;99.90
23540;DHT22;11947;50.810;4.394;2023-03-12T17:16:11;12.60;99.90
23540;DHT22;11947;50.810;4.394;2023-03-12T17:18:39;12.60;99.90
23540;DHT22;11947;50.810;4.394;2023-03-12T17:21:05;12.50;99.90
23540;DHT22;11947;50.810;4.394;2023-03-12T17:23:30;12.50;99.90
23540;DHT22;11947;50.810;4.394;2023-03-12T17:25:56;12.40;99.90
23540;DHT22;11947;50.810;4.394;2023-03-12T17:28:21;12.20;99.90